Ship Status Report: callsign NRED

sailwx.info

Track history (hours):
 
Tides and Currents Weather Stations Pressure Air Temp Water Temp Dewpoint Dewpoint Depression Visibility Wind Speed Wind Dir Waves Ship Positions

Callsign NRED (name unknown)

Last reported at 2018-Apr-16 20:04 UTC. Time now 2018-May-21 01:11 UTC.
Position N 36°49' W 075°47'.
Warning: this ship's position is 34 days out of date.

AWS

Date/timePositionNaut miles runAvg speedWind from/ knotsBaromVisibWave heightAir tempDewpointWater temp
2018-Apr-16 20:04N 36°49' W 075°47'314.3
2018-Apr-16 19:52N 36°51' W 075°50'717.0
2018-Apr-16 19:28N 36°55' W 075°57'817.0
2018-Apr-16 19:00N 36°58' W 076°06'  
2018-Apr-13 13:40N 36°56' W 076°20'0 1.5
2018-Apr-13 13:28N 36°56' W 076°20'9 9.9
2018-Apr-13 12:33N 36°59' W 076°09'215.5
2018-Apr-13 12:26N 36°59' W 076°07'714.5
2018-Apr-13 11:59N 36°57' W 075°59'714.0
2018-Apr-13 11:27N 36°52' W 075°52'  
2018-Apr-09 14:59N 36°51' W 075°50'817.2
2018-Apr-09 14:30N 36°56' W 075°58'816.4
2018-Apr-09 13:59N 36°59' W 076°08'10 9.9
2018-Apr-09 12:59N 36°56' W 076°20'  
Track history (hours):
 
Tides and Currents Weather Stations Pressure Air Temp Water Temp Dewpoint Dewpoint Depression Visibility Wind Speed Wind Dir Waves Ship Positions

Callsign NRED (name unknown)

Last reported at 2018-Apr-16 20:04 UTC. Time now 2018-May-21 01:11 UTC.
Position N 36°49' W 075°47'.
Warning: this ship's position is 34 days out of date.

AWS

Date/timePositionNaut miles runAvg speedWind from/ knotsBaromVisibWave heightAir tempDewpointWater temp
2018-Apr-16 20:04N 36°49' W 075°47'314.3
2018-Apr-16 19:52N 36°51' W 075°50'717.0
2018-Apr-16 19:28N 36°55' W 075°57'817.0
2018-Apr-16 19:00N 36°58' W 076°06'  
2018-Apr-13 13:40N 36°56' W 076°20'0 1.5
2018-Apr-13 13:28N 36°56' W 076°20'9 9.9
2018-Apr-13 12:33N 36°59' W 076°09'215.5
2018-Apr-13 12:26N 36°59' W 076°07'714.5
2018-Apr-13 11:59N 36°57' W 075°59'714.0
2018-Apr-13 11:27N 36°52' W 075°52'  
2018-Apr-09 14:59N 36°51' W 075°50'817.2
2018-Apr-09 14:30N 36°56' W 075°58'816.4
2018-Apr-09 13:59N 36°59' W 076°08'10 9.9
2018-Apr-09 12:59N 36°56' W 076°20'  

Dump ship's entire track history